Time;durP1;ratioP1;P1;durP2;ratioP2;P2;SDS_P1;SDS_P2;PMS_P1;PMS_P2;Temp;Humidity;BMP_temperature;BMP_pressure;BME280_temperature;BME280_humidity;BME280_pressure;Samples;Min_cycle;Max_cycle;Signal;HPM_P1;HPM_P2
2022/07/19 00:02:09;;;;;;;5.22;3.10;;;18.90;99.90;;;;;;5091189;28;20148;-63
2022/07/19 00:04:35;;;;;;;4.80;2.97;;;18.90;99.90;;;;;;5106384;28;20044;-64
2022/07/19 00:07:01;;;;;;;3.17;2.75;;;18.90;99.90;;;;;;5089289;28;20496;-64
2022/07/19 00:09:27;;;;;;;4.85;2.97;;;18.90;99.90;;;;;;5091516;28;20071;-64
2022/07/19 00:11:54;;;;;;;4.57;3.17;;;18.90;99.90;;;;;;5090745;28;20516;-64
2022/07/19 00:14:20;;;;;;;5.13;3.08;;;18.90;99.90;;;;;;5089640;28;20035;-64
2022/07/19 00:16:46;;;;;;;5.68;3.00;;;18.80;99.90;;;;;;5091867;28;20032;-62
2022/07/19 00:19:11;;;;;;;5.03;3.03;;;18.80;99.90;;;;;;5093943;28;20040;-64
2022/07/19 00:21:37;;;;;;;6.57;3.97;;;18.80;99.90;;;;;;5088789;28;20036;-63
2022/07/19 00:24:03;;;;;;;5.03;3.28;;;18.70;99.90;;;;;;5091360;28;20040;-65
2022/07/19 00:26:29;;;;;;;7.20;3.50;;;18.70;99.90;;;;;;5089529;28;20068;-64
2022/07/19 00:28:56;;;;;;;4.35;3.10;;;18.60;99.90;;;;;;5124486;27;20093;-64
2022/07/19 00:31:24;;;;;;;5.38;3.05;;;18.60;99.90;;;;;;5091624;28;20097;-64
2022/07/19 00:33:51;;;;;;;3.40;3.10;;;18.50;99.90;;;;;;5123401;27;20079;-65
2022/07/19 00:36:18;;;;;;;6.60;3.42;;;18.50;99.90;;;;;;5119630;27;20059;-64
2022/07/19 00:38:44;;;;;;;4.82;3.10;;;18.50;99.90;;;;;;5091907;28;20058;-65
2022/07/19 00:41:09;;;;;;;4.88;3.30;;;18.50;99.90;;;;;;5092118;28;20115;-64
2022/07/19 00:43:35;;;;;;;4.95;3.58;;;18.40;99.90;;;;;;5090929;28;20058;-64
2022/07/19 00:46:01;;;;;;;4.65;3.80;;;18.40;99.90;;;;;;5089896;28;20129;-64
2022/07/19 00:48:27;;;;;;;5.78;3.70;;;18.30;99.90;;;;;;5088382;28;20059;-63
2022/07/19 00:50:52;;;;;;;6.05;4.13;;;18.20;99.90;;;;;;5092443;28;20035;-63
2022/07/19 00:53:19;;;;;;;6.10;3.83;;;18.20;99.90;;;;;;5088684;28;20036;-63
2022/07/19 00:55:45;;;;;;;5.80;4.00;;;18.10;99.90;;;;;;5087613;28;20115;-64
2022/07/19 00:58:13;;;;;;;4.57;3.42;;;18.10;99.90;;;;;;5090419;28;20162;-64
2022/07/19 01:00:40;;;;;;;5.25;3.50;;;18.10;99.90;;;;;;5090883;28;20055;-63
2022/07/19 01:03:08;;;;;;;5.78;3.58;;;18.10;99.90;;;;;;5089802;28;20047;-65
2022/07/19 01:05:34;;;;;;;6.47;3.97;;;18.10;99.90;;;;;;5089774;28;20395;-65
2022/07/19 01:07:59;;;;;;;5.32;3.70;;;18.00;99.90;;;;;;5087480;28;20032;-64
2022/07/19 01:10:26;;;;;;;6.50;3.75;;;18.00;99.90;;;;;;5089686;28;20042;-64
2022/07/19 01:12:52;;;;;;;4.50;3.80;;;17.90;99.90;;;;;;5087930;28;20044;-65
2022/07/19 01:15:20;;;;;;;4.57;3.72;;;17.90;99.90;;;;;;5091568;28;20075;-64
2022/07/19 01:17:47;;;;;;;5.18;3.83;;;17.90;99.90;;;;;;5071503;28;20043;-64
2022/07/19 01:20:14;;;;;;;6.97;3.67;;;17.80;99.90;;;;;;5088359;28;20032;-64
2022/07/19 01:22:43;;;;;;;4.47;3.70;;;17.80;99.90;;;;;;5089987;28;20044;-63
2022/07/19 01:25:10;;;;;;;6.30;3.70;;;17.80;99.90;;;;;;5090741;28;20047;-65
2022/07/19 01:27:50;;;;;;;4.57;3.58;;;17.80;99.90;;;;;;5089070;28;20048;-64
2022/07/19 01:30:19;;;;;;;7.13;3.50;;;17.80;99.90;;;;;;5120807;27;20059;-63
2022/07/19 01:32:45;;;;;;;5.35;4.00;;;17.90;99.90;;;;;;5087695;28;20048;-65
2022/07/19 01:35:12;;;;;;;4.55;3.67;;;17.90;99.90;;;;;;5089533;28;20059;-64
2022/07/19 01:37:38;;;;;;;4.75;3.60;;;17.90;99.90;;;;;;5090251;28;20044;-62
2022/07/19 01:40:07;;;;;;;4.50;3.35;;;17.90;99.90;;;;;;5088390;28;20047;-64
2022/07/19 01:42:33;;;;;;;6.25;3.53;;;18.00;99.90;;;;;;5088866;28;20124;-64
2022/07/19 01:44:58;;;;;;;4.82;4.18;;;18.00;99.90;;;;;;5088129;28;20105;-64
2022/07/19 01:47:24;;;;;;;4.32;3.30;;;18.00;99.90;;;;;;5088832;28;20042;-64
2022/07/19 01:49:50;;;;;;;5.47;3.42;;;17.90;99.90;;;;;;5090334;28;20050;-63
2022/07/19 01:52:16;;;;;;;4.75;3.42;;;17.90;99.90;;;;;;5086608;28;20036;-64
2022/07/19 01:54:41;;;;;;;5.43;3.47;;;17.80;99.90;;;;;;5088569;28;20098;-63
2022/07/19 01:57:07;;;;;;;4.05;3.35;;;17.70;99.90;;;;;;5088648;28;20131;-64
2022/07/19 01:59:35;;;;;;;4.47;3.75;;;17.70;99.90;;;;;;5088072;28;20043;-64
2022/07/19 02:02:00;;;;;;;4.97;4.00;;;17.60;99.90;;;;;;5087445;28;20046;-64
2022/07/19 02:04:26;;;;;;;5.20;3.90;;;17.60;99.90;;;;;;5088762;28;20032;-63
2022/07/19 02:06:52;;;;;;;5.70;3.70;;;17.60;99.90;;;;;;5087887;28;20044;-64
2022/07/19 02:09:17;;;;;;;4.60;3.80;;;17.60;99.90;;;;;;5071819;28;20075;-63
2022/07/19 02:11:43;;;;;;;4.47;3.38;;;17.60;99.90;;;;;;5085863;28;20040;-64
2022/07/19 02:14:09;;;;;;;5.28;3.53;;;17.60;99.90;;;;;;5091272;28;20051;-65
2022/07/19 02:16:36;;;;;;;4.90;3.83;;;17.60;99.90;;;;;;5092845;28;20028;-63
2022/07/19 02:19:03;;;;;;;5.07;3.90;;;17.60;99.90;;;;;;5087496;28;20028;-64
2022/07/19 02:21:28;;;;;;;5.00;3.90;;;17.60;99.90;;;;;;5088808;28;20028;-64
2022/07/19 02:23:54;;;;;;;3.80;3.35;;;17.60;99.90;;;;;;5090580;28;20036;-64
2022/07/19 02:26:20;;;;;;;4.57;3.80;;;17.70;99.90;;;;;;5090329;28;20040;-64
2022/07/19 02:28:46;;;;;;;4.90;3.90;;;17.70;99.90;;;;;;5088471;28;20048;-63
2022/07/19 02:31:11;;;;;;;5.05;4.05;;;17.60;99.90;;;;;;5088641;28;20040;-64
2022/07/19 02:33:37;;;;;;;5.00;3.60;;;17.60;99.90;;;;;;5087457;28;21705;-64
2022/07/19 02:36:06;;;;;;;5.13;3.60;;;17.60;99.90;;;;;;5089646;28;20101;-63
2022/07/19 02:38:32;;;;;;;5.40;3.92;;;17.60;99.90;;;;;;5089782;28;20067;-65
2022/07/19 02:40:57;;;;;;;4.70;3.88;;;17.60;99.90;;;;;;5088621;28;20071;-63
2022/07/19 02:43:23;;;;;;;5.18;4.22;;;17.50;99.90;;;;;;5121990;28;20073;-64
2022/07/19 02:45:48;;;;;;;5.72;3.90;;;17.50;99.90;;;;;;5087952;28;20032;-65
2022/07/19 02:48:14;;;;;;;4.13;3.63;;;17.40;99.90;;;;;;5090358;28;20490;-65
2022/07/19 02:50:41;;;;;;;4.55;3.83;;;17.40;99.90;;;;;;5088635;28;20170;-65
2022/07/19 02:53:07;;;;;;;6.43;3.97;;;17.40;99.90;;;;;;5088551;28;20052;-64
2022/07/19 02:55:33;;;;;;;4.63;3.70;;;17.30;99.90;;;;;;5087035;28;20047;-64
2022/07/19 02:57:58;;;;;;;4.70;3.88;;;17.30;99.90;;;;;;5088633;28;20221;-64
2022/07/19 03:00:24;;;;;;;5.35;4.30;;;17.20;99.90;;;;;;5087801;28;20048;-64
2022/07/19 03:02:50;;;;;;;6.20;4.40;;;17.20;99.90;;;;;;5089284;28;20039;-64
2022/07/19 03:05:16;;;;;;;7.45;4.00;;;17.10;99.90;;;;;;5086694;28;20402;-64
2022/07/19 03:07:41;;;;;;;5.22;4.07;;;17.10;99.90;;;;;;5092838;28;20058;-64
2022/07/19 03:10:07;;;;;;;5.28;3.97;;;17.10;99.90;;;;;;5093346;28;20070;-64
2022/07/19 03:12:33;;;;;;;7.22;3.78;;;17.10;99.90;;;;;;5090531;28;20119;-66
2022/07/19 03:14:59;;;;;;;7.25;4.47;;;17.10;99.90;;;;;;5093155;28;20372;-65
2022/07/19 03:17:25;;;;;;;4.43;3.90;;;17.10;99.90;;;;;;5090969;28;20051;-64
2022/07/19 03:19:50;;;;;;;6.78;3.97;;;17.00;99.90;;;;;;5092081;28;20074;-65
2022/07/19 03:22:16;;;;;;;3.95;3.40;;;17.00;99.90;;;;;;5088505;28;20048;-64
2022/07/19 03:24:42;;;;;;;4.78;4.10;;;17.00;99.90;;;;;;5092020;28;20505;-63
2022/07/19 03:27:07;;;;;;;5.78;4.10;;;16.90;99.90;;;;;;5091801;28;20051;-63
2022/07/19 03:29:33;;;;;;;8.60;5.25;;;16.90;99.90;;;;;;5091633;28;20036;-63
2022/07/19 03:31:59;;;;;;;5.60;4.43;;;16.90;99.90;;;;;;5091658;28;20429;-64
2022/07/19 03:34:26;;;;;;;5.72;4.13;;;17.00;99.90;;;;;;5090563;28;20074;-62
2022/07/19 03:36:51;;;;;;;6.45;4.45;;;17.00;99.90;;;;;;5092176;28;20115;-64
2022/07/19 03:39:17;;;;;;;8.50;5.25;;;17.00;99.90;;;;;;5091632;28;20127;-64
2022/07/19 03:41:43;;;;;;;7.30;5.18;;;17.10;99.90;;;;;;5089947;28;20047;-63
2022/07/19 03:44:08;;;;;;;6.97;5.07;;;17.20;99.90;;;;;;5090334;28;20043;-64
2022/07/19 03:46:34;;;;;;;6.63;4.10;;;17.20;99.90;;;;;;5092255;28;20131;-64
2022/07/19 03:48:59;;;;;;;6.35;3.97;;;17.20;99.90;;;;;;5088606;28;20048;-64
2022/07/19 03:51:25;;;;;;;6.88;4.32;;;17.30;99.90;;;;;;5093551;28;20043;-64
2022/07/19 03:53:51;;;;;;;5.97;4.13;;;17.30;99.90;;;;;;5091233;28;20039;-65
2022/07/19 03:56:17;;;;;;;5.32;4.38;;;17.30;99.90;;;;;;5092288;28;20040;-63
2022/07/19 03:58:44;;;;;;;6.07;4.28;;;17.30;99.90;;;;;;5090338;28;20848;-64
2022/07/19 04:01:10;;;;;;;7.50;4.55;;;17.30;99.90;;;;;;5092817;28;20543;-65
2022/07/19 04:03:37;;;;;;;6.05;4.05;;;17.30;99.90;;;;;;5090972;28;20040;-64
2022/07/19 04:06:07;;;;;;;4.80;4.30;;;17.20;99.90;;;;;;5090146;28;20047;-64
2022/07/19 04:08:34;;;;;;;4.15;3.75;;;17.10;99.90;;;;;;5091948;28;20036;-64
2022/07/19 04:11:00;;;;;;;6.13;4.22;;;17.10;99.90;;;;;;5090729;28;20134;-63
2022/07/19 04:13:26;;;;;;;7.13;4.82;;;17.10;99.90;;;;;;5095121;28;20051;-64
2022/07/19 04:15:51;;;;;;;6.75;4.35;;;17.10;99.90;;;;;;5089421;28;20389;-64
2022/07/19 04:18:17;;;;;;;7.35;4.63;;;17.20;99.90;;;;;;5090043;28;20044;-63
2022/07/19 04:20:43;;;;;;;7.47;4.95;;;17.30;99.90;;;;;;5074072;28;20047;-63
2022/07/19 04:23:09;;;;;;;9.43;4.63;;;17.30;99.90;;;;;;5090572;28;20624;-64
2022/07/19 04:25:34;;;;;;;8.80;4.78;;;17.40;99.90;;;;;;5091761;28;20100;-64
2022/07/19 04:28:01;;;;;;;11.02;5.20;;;17.40;99.90;;;;;;5091580;28;20028;-63
2022/07/19 04:30:27;;;;;;;7.93;5.25;;;17.50;99.90;;;;;;5089911;28;20783;-64
2022/07/19 04:32:53;;;;;;;8.13;4.95;;;17.50;99.90;;;;;;5093708;28;20089;-64
2022/07/19 04:35:19;;;;;;;6.80;5.03;;;17.60;99.90;;;;;;5089981;28;20414;-64
2022/07/19 04:37:45;;;;;;;9.35;5.78;;;17.70;99.90;;;;;;5092385;28;20054;-64
2022/07/19 04:40:11;;;;;;;8.27;5.00;;;17.80;99.90;;;;;;5088989;28;20039;-65
2022/07/19 04:42:37;;;;;;;9.23;4.93;;;17.90;99.90;;;;;;5089992;28;20079;-65
2022/07/19 04:45:03;;;;;;;6.82;4.88;;;17.90;99.90;;;;;;5091562;28;20064;-64
2022/07/19 04:47:29;;;;;;;9.63;5.43;;;18.00;99.90;;;;;;5088012;28;20757;-63
2022/07/19 04:49:55;;;;;;;5.57;4.45;;;18.10;99.90;;;;;;5091193;28;20047;-65
2022/07/19 04:52:20;;;;;;;6.32;4.55;;;18.10;99.90;;;;;;5091049;28;20063;-65
2022/07/19 04:54:46;;;;;;;7.60;4.97;;;18.20;99.90;;;;;;5091172;28;20040;-64
2022/07/19 04:57:13;;;;;;;7.78;4.43;;;18.30;99.90;;;;;;5090118;28;20043;-63
2022/07/19 04:59:39;;;;;;;8.63;5.43;;;18.30;99.90;;;;;;5088359;28;20044;-65
2022/07/19 05:02:04;;;;;;;10.00;4.80;;;18.40;99.90;;;;;;5087617;28;20165;-64
2022/07/19 05:04:30;;;;;;;5.50;4.03;;;18.50;99.90;;;;;;5091045;28;20042;-64
2022/07/19 05:06:58;;;;;;;7.57;4.70;;;18.60;99.90;;;;;;5091100;28;20036;-64
2022/07/19 05:09:25;;;;;;;5.45;4.28;;;18.60;99.90;;;;;;5089479;28;20040;-64
2022/07/19 05:11:52;;;;;;;7.55;4.68;;;18.70;99.90;;;;;;5090772;28;20031;-64
2022/07/19 05:14:18;;;;;;;10.15;4.03;;;18.80;99.90;;;;;;5088987;28;20036;-63
2022/07/19 05:16:44;;;;;;;7.40;4.18;;;18.90;99.90;;;;;;5085377;28;20075;-65
2022/07/19 05:19:10;;;;;;;5.03;4.20;;;18.90;99.90;;;;;;5088963;28;20085;-65
2022/07/19 05:21:35;;;;;;;8.98;4.82;;;19.00;99.90;;;;;;5071063;28;20411;-65
2022/07/19 05:24:01;;;;;;;8.07;4.60;;;19.10;99.90;;;;;;5087428;28;20051;-64
2022/07/19 05:26:27;;;;;;;8.45;5.18;;;19.20;99.90;;;;;;5087715;28;20059;-63
2022/07/19 05:28:52;;;;;;;8.52;4.95;;;19.30;99.90;;;;;;5088537;28;20052;-65
2022/07/19 05:31:18;;;;;;;7.60;4.55;;;19.50;99.90;;;;;;5088448;28;21018;-63
2022/07/19 05:33:43;;;;;;;6.68;5.18;;;19.60;99.90;;;;;;5089504;28;20040;-64
2022/07/19 05:36:10;;;;;;;7.15;4.68;;;19.70;99.90;;;;;;5090635;28;20595;-65
2022/07/19 05:38:39;;;;;;;9.65;5.97;;;19.80;99.90;;;;;;5088706;28;20048;-64
2022/07/19 05:41:10;;;;;;;7.63;4.93;;;19.90;99.90;;;;;;5088633;28;20039;-63
2022/07/19 05:43:37;;;;;;;6.55;4.63;;;20.00;99.90;;;;;;5084426;28;20487;-64
2022/07/19 05:46:04;;;;;;;8.23;4.82;;;20.10;99.90;;;;;;5085960;28;20032;-65
2022/07/19 05:48:30;;;;;;;8.55;5.45;;;20.30;99.90;;;;;;5089539;28;20097;-64
2022/07/19 05:50:56;;;;;;;10.60;5.93;;;20.40;99.90;;;;;;5088468;28;20035;-64
2022/07/19 05:53:22;;;;;;;7.55;5.28;;;20.50;99.90;;;;;;5090063;28;20032;-66
2022/07/19 05:55:48;;;;;;;6.88;5.00;;;20.60;99.90;;;;;;5088823;28;20490;-65
2022/07/19 05:58:13;;;;;;;7.63;5.03;;;20.80;99.90;;;;;;5085938;28;20052;-65
2022/07/19 06:01:17;;;;;;;8.63;5.07;;;20.90;99.90;;;;;;5090643;28;20132;-65
2022/07/19 06:03:25;;;;;;;7.75;5.20;;;21.00;99.90;;;;;;5088076;28;20068;-65
2022/07/19 06:05:50;;;;;;;8.48;4.85;;;21.10;99.90;;;;;;5088537;28;20068;-65
2022/07/19 06:08:16;;;;;;;8.55;4.95;;;21.30;99.90;;;;;;5085599;28;20411;-64
2022/07/19 06:10:41;;;;;;;8.43;4.47;;;21.40;99.90;;;;;;5089600;28;20482;-65
2022/07/19 06:13:07;;;;;;;6.63;4.32;;;21.50;99.90;;;;;;5085954;28;20036;-65
2022/07/19 06:15:33;;;;;;;6.53;4.50;;;21.60;99.90;;;;;;5088273;28;20059;-65
2022/07/19 06:17:58;;;;;;;8.73;5.00;;;21.80;99.90;;;;;;5090176;28;20040;-65
2022/07/19 06:20:24;;;;;;;6.05;4.60;;;21.90;99.90;;;;;;5089072;28;20036;-65
2022/07/19 06:22:49;;;;;;;5.85;4.18;;;22.00;99.90;;;;;;5088895;28;20491;-64
2022/07/19 06:25:15;;;;;;;5.63;4.32;;;22.10;99.90;;;;;;5090279;28;20043;-64
2022/07/19 06:27:40;;;;;;;7.07;4.68;;;22.30;99.90;;;;;;5122784;28;20406;-65
2022/07/19 06:30:07;;;;;;;5.15;3.83;;;22.40;99.90;;;;;;5088940;28;20471;-66
2022/07/19 06:32:32;;;;;;;5.97;3.42;;;22.50;99.90;;;;;;5090050;28;20079;-65
2022/07/19 06:34:58;;;;;;;5.72;3.70;;;22.70;99.90;;;;;;5088929;28;20063;-65
2022/07/19 06:37:23;;;;;;;6.57;3.53;;;22.90;99.90;;;;;;5088457;28;20046;-64
2022/07/19 06:39:49;;;;;;;6.13;3.83;;;23.00;99.90;;;;;;5088840;28;20466;-64
2022/07/19 06:42:16;;;;;;;4.78;3.58;;;23.20;99.90;;;;;;5125362;27;20083;-64
2022/07/19 06:44:41;;;;;;;5.18;3.58;;;23.40;99.90;;;;;;5092522;28;20070;-66
2022/07/19 06:47:07;;;;;;;7.07;3.47;;;23.50;99.90;;;;;;5092414;28;20086;-65
2022/07/19 06:49:32;;;;;;;5.70;3.42;;;23.60;99.90;;;;;;5093009;28;20540;-64
2022/07/19 06:51:58;;;;;;;5.63;3.50;;;23.70;99.90;;;;;;5093814;28;20036;-66
2022/07/19 06:54:24;;;;;;;6.13;3.60;;;23.90;99.90;;;;;;5092432;28;20051;-64
2022/07/19 06:56:49;;;;;;;4.90;3.58;;;24.10;99.90;;;;;;5126596;27;20055;-64
2022/07/19 06:59:15;;;;;;;9.52;4.07;;;24.20;99.90;;;;;;5093335;28;20437;-65
2022/07/19 07:01:41;;;;;;;5.80;3.40;;;24.40;99.90;;;;;;5092042;28;20064;-65
2022/07/19 07:04:06;;;;;;;6.25;2.90;;;24.50;99.90;;;;;;5093683;28;20114;-65
2022/07/19 07:06:32;;;;;;;3.78;3.10;;;24.60;99.90;;;;;;5092190;28;20549;-65
2022/07/19 07:08:57;;;;;;;4.72;3.00;;;24.80;99.90;;;;;;5092235;28;20125;-65
2022/07/19 07:11:23;;;;;;;7.47;3.42;;;24.90;99.90;;;;;;5093307;28;20122;-63
2022/07/19 07:13:49;;;;;;;6.18;2.50;;;25.10;99.80;;;;;;5092311;28;20079;-65
2022/07/19 07:16:14;;;;;;;5.28;2.60;;;25.20;99.80;;;;;;5093262;28;20035;-66
2022/07/19 07:18:40;;;;;;;3.67;2.60;;;25.30;99.60;;;;;;5092038;28;20368;-65
2022/07/19 07:21:05;;;;;;;5.30;2.90;;;25.40;99.00;;;;;;5091920;28;20048;-63
2022/07/19 07:23:31;;;;;;;5.43;2.75;;;25.60;98.80;;;;;;5091644;28;20051;-65
2022/07/19 07:25:57;;;;;;;6.57;2.30;;;25.70;98.60;;;;;;5092151;28;20530;-66
2022/07/19 07:28:22;;;;;;;6.53;2.83;;;25.80;98.00;;;;;;5093005;28;20046;-64
2022/07/19 07:30:48;;;;;;;6.22;2.80;;;25.90;98.00;;;;;;5091625;28;20493;-64
2022/07/19 07:33:13;;;;;;;4.65;2.40;;;26.10;97.40;;;;;;5092128;28;20050;-65
2022/07/19 07:35:39;;;;;;;4.78;2.60;;;26.20;96.70;;;;;;5091477;28;20063;-66
2022/07/19 07:38:05;;;;;;;2.85;1.92;;;26.30;96.20;;;;;;5091606;28;20475;-66
2022/07/19 07:40:30;;;;;;;4.22;2.17;;;26.40;96.00;;;;;;5093026;28;20402;-65
2022/07/19 07:42:56;;;;;;;3.60;2.22;;;26.60;95.60;;;;;;5091582;28;20143;-65
2022/07/19 07:45:22;;;;;;;3.35;1.83;;;26.70;95.10;;;;;;5091385;28;20040;-65
2022/07/19 07:47:48;;;;;;;4.18;2.20;;;26.80;94.50;;;;;;5092785;28;20047;-64
2022/07/19 07:50:13;;;;;;;4.22;2.00;;;26.90;94.30;;;;;;5074207;28;20082;-65
2022/07/19 07:52:39;;;;;;;3.92;2.30;;;27.10;94.20;;;;;;5090973;28;20032;-66
2022/07/19 07:55:05;;;;;;;6.05;2.00;;;27.20;94.40;;;;;;5092599;28;20038;-65
2022/07/19 07:57:31;;;;;;;4.90;1.60;;;27.50;94.90;;;;;;5091182;28;20105;-65
2022/07/19 07:59:58;;;;;;;3.15;2.03;;;27.60;94.30;;;;;;5091535;28;20040;-66
2022/07/19 08:02:23;;;;;;;3.15;1.80;;;27.70;93.20;;;;;;5125192;27;20066;-65
2022/07/19 08:04:49;;;;;;;6.63;1.90;;;27.90;93.00;;;;;;5092623;28;20027;-66
2022/07/19 08:07:14;;;;;;;3.22;2.03;;;28.00;92.50;;;;;;5074075;28;20044;-64
2022/07/19 08:09:40;;;;;;;4.60;1.98;;;28.10;92.20;;;;;;5091238;28;20044;-64
2022/07/19 08:12:06;;;;;;;4.75;1.80;;;28.20;92.40;;;;;;5092177;28;20036;-65
2022/07/19 08:14:32;;;;;;;6.22;1.95;;;28.40;91.90;;;;;;5091111;28;20517;-66
2022/07/19 08:16:58;;;;;;;4.70;2.15;;;28.50;91.90;;;;;;5090643;28;20048;-65
2022/07/19 08:19:24;;;;;;;4.97;2.00;;;28.70;91.30;;;;;;5092183;28;20048;-66
2022/07/19 08:21:49;;;;;;;3.50;1.88;;;28.80;91.20;;;;;;5090594;28;20084;-65
2022/07/19 08:24:15;;;;;;;3.97;1.77;;;28.90;90.90;;;;;;5092229;28;20075;-64
2022/07/19 08:26:41;;;;;;;5.45;2.15;;;29.10;90.60;;;;;;5090599;28;20036;-66
2022/07/19 08:29:07;;;;;;;6.78;2.10;;;29.20;90.30;;;;;;5090508;28;20094;-65
2022/07/19 08:31:33;;;;;;;4.07;1.90;;;29.30;89.80;;;;;;5090317;28;20040;-65
2022/07/19 08:33:58;;;;;;;6.72;2.00;;;29.40;90.10;;;;;;5091663;28;20040;-64
2022/07/19 08:36:24;;;;;;;5.03;1.80;;;29.60;89.00;;;;;;5091724;28;20052;-64
2022/07/19 08:38:50;;;;;;;2.85;1.83;;;29.60;87.60;;;;;;5090170;28;20051;-66
2022/07/19 08:41:16;;;;;;;8.27;2.78;;;29.70;87.00;;;;;;5092168;28;20035;-65
2022/07/19 08:43:42;;;;;;;11.50;1.98;;;29.80;86.40;;;;;;5090222;28;20044;-66
2022/07/19 08:46:07;;;;;;;10.82;2.00;;;29.90;87.30;;;;;;5090406;28;20054;-64
2022/07/19 08:48:35;;;;;;;5.70;2.00;;;30.10;87.20;;;;;;5091793;28;20210;-65
2022/07/19 08:51:01;;;;;;;4.05;1.80;;;30.20;86.40;;;;;;5091598;28;20607;-65
2022/07/19 08:53:32;;;;;;;5.47;1.92;;;30.30;85.80;;;;;;5090710;28;20047;-66
2022/07/19 08:55:59;;;;;;;3.95;2.03;;;30.40;84.90;;;;;;5091727;28;20062;-65
2022/07/19 08:58:25;;;;;;;5.18;2.05;;;30.60;86.40;;;;;;5091354;28;20044;-65
2022/07/19 09:00:51;;;;;;;3.03;1.80;;;30.70;85.50;;;;;;5091446;28;20123;-65
2022/07/19 09:03:16;;;;;;;3.55;1.80;;;30.90;85.30;;;;;;5072871;28;20043;-65
2022/07/19 09:05:42;;;;;;;3.20;1.90;;;31.00;85.30;;;;;;5089480;28;20075;-66
2022/07/19 09:08:10;;;;;;;3.35;1.88;;;31.20;85.20;;;;;;5091393;28;20122;-66
2022/07/19 09:11:13;;;;;;;4.65;2.00;;;31.30;85.70;;;;;;5089890;28;20028;-64
2022/07/19 09:13:30;;;;;;;3.30;1.98;;;31.40;85.20;;;;;;5090967;28;20044;-65
2022/07/19 09:15:56;;;;;;;6.18;1.92;;;31.60;83.30;;;;;;5089797;28;20121;-65
2022/07/19 09:18:27;;;;;;;8.07;2.47;;;31.70;83.10;;;;;;5089640;28;20070;-65
2022/07/19 09:20:56;;;;;;;4.60;1.85;;;31.80;83.00;;;;;;5089631;28;20507;-67
2022/07/19 09:23:21;;;;;;;2.42;1.63;;;31.90;82.00;;;;;;5090698;28;20118;-67
2022/07/19 09:25:53;;;;;;;3.40;1.80;;;32.00;82.60;;;;;;5089717;28;20570;-65
2022/07/19 09:28:20;;;;;;;6.65;2.00;;;32.20;81.60;;;;;;5091153;28;20058;-64
2022/07/19 09:30:48;;;;;;;4.63;2.45;;;32.30;81.70;;;;;;5089761;28;20040;-65
2022/07/19 09:33:20;;;;;;;4.78;1.80;;;32.40;80.80;;;;;;5090965;28;20032;-65
2022/07/19 09:35:52;;;;;;;4.20;2.05;;;32.50;80.90;;;;;;5090630;28;20410;-66
2022/07/19 09:38:18;;;;;;;3.38;1.65;;;32.60;79.90;;;;;;5089466;28;20086;-65
2022/07/19 09:40:43;;;;;;;3.72;1.92;;;32.70;80.00;;;;;;5089727;28;20067;-65
2022/07/19 09:43:09;;;;;;;8.65;1.95;;;32.80;79.70;;;;;;5090300;28;20082;-64
2022/07/19 09:45:35;;;;;;;7.20;2.20;;;32.90;78.90;;;;;;5089297;28;20036;-65
2022/07/19 09:48:03;;;;;;;3.58;1.92;;;32.90;76.70;;;;;;5090965;28;20036;-66
2022/07/19 09:50:29;;;;;;;4.82;1.70;;;33.00;77.50;;;;;;5089179;28;20071;-65
2022/07/19 09:52:58;;;;;;;5.55;2.08;;;33.10;77.20;;;;;;5089055;28;20062;-65
2022/07/19 09:55:24;;;;;;;4.40;1.98;;;33.10;76.40;;;;;;5089035;28;20131;-65
2022/07/19 09:57:51;;;;;;;3.38;1.83;;;33.10;75.00;;;;;;5089023;28;20040;-66
2022/07/19 10:00:22;;;;;;;7.25;2.00;;;33.10;75.30;;;;;;5090263;28;20043;-66
2022/07/19 10:02:52;;;;;;;7.07;2.17;;;33.20;74.10;;;;;;5089081;28;20044;-65
2022/07/19 10:05:20;;;;;;;3.53;2.10;;;33.20;74.30;;;;;;5090273;28;20127;-65
2022/07/19 10:07:46;;;;;;;4.95;2.10;;;33.30;73.90;;;;;;5089051;28;20082;-65
2022/07/19 10:10:15;;;;;;;4.70;1.83;;;33.40;73.80;;;;;;5090352;28;20395;-66
2022/07/19 10:12:43;;;;;;;4.70;1.70;;;33.50;74.00;;;;;;5089248;28;20032;-64
2022/07/19 10:15:10;;;;;;;2.05;1.50;;;33.70;74.00;;;;;;5090337;28;20052;-66
2022/07/19 10:17:57;;;;;;;2.95;1.80;;;33.80;72.00;;;;;;5093708;28;20054;-65
2022/07/19 10:20:25;;;;;;;4.20;2.13;;;33.90;71.30;;;;;;5127324;27;20105;-65
2022/07/19 10:22:51;;;;;;;5.72;1.63;;;34.10;70.90;;;;;;5123091;27;20044;-66
2022/07/19 10:25:18;;;;;;;3.50;1.63;;;34.20;70.60;;;;;;5094040;28;20047;-65
2022/07/19 10:27:51;;;;;;;3.90;1.85;;;34.30;71.00;;;;;;5093046;28;20467;-64
2022/07/19 10:30:23;;;;;;;3.78;1.70;;;34.40;69.10;;;;;;5093018;28;20552;-64
2022/07/19 10:32:50;;;;;;;4.38;1.50;;;34.50;68.30;;;;;;5094191;28;20510;-66
2022/07/19 10:35:17;;;;;;;2.25;1.58;;;34.60;68.70;;;;;;5092549;28;20067;-66
2022/07/19 10:37:45;;;;;;;2.95;1.25;;;34.70;69.00;;;;;;5092765;28;20123;-65
2022/07/19 10:40:10;;;;;;;6.55;1.60;;;34.80;68.50;;;;;;5094004;28;20036;-66
2022/07/19 10:42:36;;;;;;;2.78;1.40;;;35.00;67.50;;;;;;5092444;28;20085;-66
2022/07/19 10:45:01;;;;;;;4.55;1.77;;;35.10;67.50;;;;;;5092684;28;20483;-65
2022/07/19 10:47:42;;;;;;;3.97;1.58;;;35.20;67.80;;;;;;5092574;28;20084;-65
2022/07/19 10:50:18;;;;;;;3.43;1.53;;;35.30;66.90;;;;;;5093817;28;20111;-66
2022/07/19 10:52:45;;;;;;;2.92;1.50;;;35.40;67.10;;;;;;5092495;28;20092;-65
2022/07/19 10:55:17;;;;;;;2.30;1.40;;;35.50;65.80;;;;;;5092564;28;20044;-65
2022/07/19 10:57:47;;;;;;;4.70;1.90;;;35.60;65.80;;;;;;5092540;28;20044;-65
2022/07/19 11:00:28;;;;;;;3.83;1.60;;;35.70;66.20;;;;;;5090800;28;20074;-64
2022/07/19 11:03:22;;;;;;;4.53;1.80;;;35.80;64.90;;;;;;5093568;28;20359;-67
2022/07/19 11:05:49;;;;;;;6.28;1.80;;;35.70;65.90;;;;;;5092193;28;20044;-66
2022/07/19 11:08:15;;;;;;;3.40;1.60;;;35.70;63.10;;;;;;5093684;28;20032;-66
2022/07/19 11:10:40;;;;;;;5.65;1.85;;;35.70;64.10;;;;;;5092026;28;20047;-66
2022/07/19 11:13:06;;;;;;;2.47;1.38;;;35.70;63.30;;;;;;5093700;28;20036;-64
2022/07/19 11:15:32;;;;;;;4.70;2.03;;;35.60;64.20;;;;;;5092045;28;20513;-65
2022/07/19 11:18:00;;;;;;;3.58;1.70;;;35.70;62.90;;;;;;5092299;28;20101;-66
2022/07/19 11:20:28;;;;;;;4.70;1.52;;;35.70;63.00;;;;;;5092210;28;20089;-65
2022/07/19 11:22:56;;;;;;;2.80;1.70;;;35.60;62.50;;;;;;5092035;28;20089;-66
2022/07/19 11:25:38;;;;;;;2.33;1.52;;;35.80;63.40;;;;;;5093000;28;20043;-66
2022/07/19 11:28:04;;;;;;;8.20;1.80;;;35.80;61.20;;;;;;5092949;28;20114;-64
2022/07/19 11:30:33;;;;;;;2.80;1.60;;;35.70;61.20;;;;;;5092898;28;20123;-65
2022/07/19 11:33:04;;;;;;;3.28;1.70;;;35.70;62.00;;;;;;5091976;28;20047;-66
2022/07/19 11:35:30;;;;;;;3.47;1.60;;;35.60;61.60;;;;;;5092696;28;20487;-65
2022/07/19 11:37:57;;;;;;;4.78;1.90;;;35.60;61.60;;;;;;5092707;28;20048;-65
2022/07/19 11:40:25;;;;;;;3.17;1.50;;;35.50;60.50;;;;;;5092511;28;20032;-65
2022/07/19 11:42:52;;;;;;;2.88;1.50;;;35.40;60.30;;;;;;5092564;28;20043;-66
2022/07/19 11:45:19;;;;;;;2.20;1.40;;;35.40;60.30;;;;;;5091180;28;20394;-66
2022/07/19 11:47:53;;;;;;;3.33;1.50;;;35.50;60.30;;;;;;5092640;28;20482;-65
2022/07/19 11:50:21;;;;;;;2.65;1.42;;;35.50;60.00;;;;;;5091028;28;20072;-66
2022/07/19 11:52:56;;;;;;;4.13;1.63;;;35.60;61.00;;;;;;5092532;28;20039;-66
2022/07/19 11:55:24;;;;;;;4.10;1.35;;;35.50;59.90;;;;;;5089409;28;20032;-65
2022/07/19 11:57:51;;;;;;;2.08;1.65;;;35.50;59.30;;;;;;5091016;28;20036;-65
2022/07/19 12:00:18;;;;;;;2.65;1.58;;;35.50;59.60;;;;;;5090664;28;20127;-66
2022/07/19 12:02:58;;;;;;;4.85;1.50;;;35.40;58.60;;;;;;5092372;28;20032;-65
2022/07/19 12:05:25;;;;;;;3.88;1.35;;;35.40;58.60;;;;;;5091160;28;20407;-66
2022/07/19 12:07:54;;;;;;;2.38;1.27;;;35.40;58.20;;;;;;5090800;28;20044;-66
2022/07/19 12:10:43;;;;;;;4.22;1.73;;;35.40;57.90;;;;;;5088413;28;20047;-65
2022/07/19 12:13:11;;;;;;;2.13;1.50;;;35.30;57.30;;;;;;5091226;28;20051;-65
2022/07/19 12:15:51;;;;;;;4.85;1.42;;;35.20;56.20;;;;;;5092318;28;20093;-64
2022/07/19 12:18:41;;;;;;;1.95;1.30;;;35.10;57.10;;;;;;5072772;28;20126;-66
2022/07/19 12:21:26;;;;;;;3.67;1.45;;;35.10;57.60;;;;;;5091936;28;20046;-66
2022/07/19 12:24:24;;;;;;;3.22;1.80;;;35.00;56.40;;;;;;5090325;28;20098;-67
2022/07/19 12:27:00;;;;;;;3.20;1.40;;;35.00;57.60;;;;;;5124518;27;20048;-65
2022/07/19 12:29:36;;;;;;;3.47;1.40;;;35.00;57.50;;;;;;5090880;28;20398;-66
2022/07/19 12:32:38;;;;;;;2.65;1.30;;;35.10;56.90;;;;;;5090519;28;20487;-66
2022/07/19 12:35:08;;;;;;;4.30;1.40;;;35.10;58.00;;;;;;5028946;28;20527;-65
2022/07/19 12:37:40;;;;;;;1.73;1.30;;;35.00;56.10;;;;;;5012431;28;20045;-65
2022/07/19 12:40:11;;;;;;;3.60;1.33;;;35.00;55.90;;;;;;5011665;28;20049;-65
2022/07/19 12:42:45;;;;;;;2.88;1.20;;;35.00;55.50;;;;;;5012548;28;20496;-66
2022/07/19 12:45:17;;;;;;;6.25;1.50;;;35.00;55.90;;;;;;5029200;28;20073;-66
2022/07/19 12:47:43;;;;;;;;;;;35.00;54.60;;;;;;5013071;28;20033;-65
2022/07/19 12:50:18;;;;;;;2.15;1.33;;;35.00;55.00;;;;;;5012407;28;20388;-66